Time;durP1;ratioP1;P1;durP2;ratioP2;P2;SDS_P1;SDS_P2;PMS_P1;PMS_P2;Temp;Humidity;BMP_temperature;BMP_pressure;BME280_temperature;BME280_humidity;BME280_pressure;Samples;Min_cycle;Max_cycle;Signal;HPM_P1;HPM_P2
2021/12/15 00:00:33;;;;;;;106.43;48.83;;;;;;;;;;2094069;28;20178;-53
2021/12/15 00:01:35;;;;;;;101.93;47.20;;;;;;;;;;2098501;28;20244;-55
2021/12/15 00:02:35;;;;;;;98.13;44.75;;;;;;;;;;2090769;28;20589;-56
2021/12/15 00:03:36;;;;;;;99.13;46.33;;;;;;;;;;2093222;28;20167;-57
2021/12/15 00:04:36;;;;;;;99.25;46.60;;;;;;;;;;2094675;28;20179;-55
2021/12/15 00:05:37;;;;;;;106.68;47.58;;;;;;;;;;2095210;28;20167;-57
2021/12/15 00:06:37;;;;;;;104.57;46.72;;;;;;;;;;2094389;28;20218;-54
2021/12/15 00:07:37;;;;;;;95.32;45.08;;;;;;;;;;2093192;28;20636;-57
2021/12/15 00:08:39;;;;;;;102.90;46.70;;;;;;;;;;2097740;28;20440;-58
2021/12/15 00:09:39;;;;;;;109.70;48.25;;;;;;;;;;2097702;28;20183;-60
2021/12/15 00:10:41;;;;;;;101.57;46.97;;;;;;;;;;2096893;28;20214;-58
2021/12/15 00:11:42;;;;;;;101.10;46.90;;;;;;;;;;2098121;28;20171;-58
2021/12/15 00:12:42;;;;;;;96.72;49.33;;;;;;;;;;2096768;28;20325;-58
2021/12/15 00:13:43;;;;;;;94.80;46.33;;;;;;;;;;2097874;28;20171;-59
2021/12/15 00:14:45;;;;;;;106.97;47.83;;;;;;;;;;2095816;28;20173;-59
2021/12/15 00:15:46;;;;;;;95.00;44.65;;;;;;;;;;2090267;28;20229;-59
2021/12/15 00:16:47;;;;;;;105.00;47.92;;;;;;;;;;2078188;28;20172;-59
2021/12/15 00:17:48;;;;;;;108.82;48.67;;;;;;;;;;2081117;28;20176;-59
2021/12/15 00:18:48;;;;;;;104.97;46.50;;;;;;;;;;2097529;28;20179;-56
2021/12/15 00:19:49;;;;;;;93.00;47.60;;;;;;;;;;2097572;28;20620;-57
2021/12/15 00:20:50;;;;;;;103.32;47.47;;;;;;;;;;2095619;28;20183;-59
2021/12/15 00:21:50;;;;;;;98.47;46.35;;;;;;;;;;2097947;28;20167;-59
2021/12/15 00:22:52;;;;;;;97.00;45.60;;;;;;;;;;2087656;28;20171;-58
2021/12/15 00:23:53;;;;;;;91.38;42.88;;;;;;;;;;2080529;28;20683;-59
2021/12/15 00:24:53;;;;;;;97.30;47.00;;;;;;;;;;2080678;28;20190;-59
2021/12/15 00:25:53;;;;;;;89.13;44.25;;;;;;;;;;2095011;28;20179;-58
2021/12/15 00:26:54;;;;;;;96.53;46.03;;;;;;;;;;2098432;28;20189;-59
2021/12/15 00:27:55;;;;;;;96.45;45.10;;;;;;;;;;2084828;28;20179;-58
2021/12/15 00:28:55;;;;;;;95.82;44.88;;;;;;;;;;2073219;28;20192;-56
2021/12/15 00:29:57;;;;;;;96.50;46.78;;;;;;;;;;2078991;28;20172;-59
2021/12/15 00:30:57;;;;;;;86.88;42.85;;;;;;;;;;2079717;28;20238;-59
2021/12/15 00:32:02;;;;;;;91.78;44.42;;;;;;;;;;2092736;28;20194;-60
2021/12/15 00:33:03;;;;;;;94.50;45.20;;;;;;;;;;2097224;28;20257;-58
2021/12/15 00:34:07;;;;;;;93.45;47.67;;;;;;;;;;2097008;28;20179;-58
2021/12/15 00:35:07;;;;;;;93.55;44.95;;;;;;;;;;2098524;28;20254;-60
2021/12/15 00:36:08;;;;;;;85.95;42.40;;;;;;;;;;2083569;28;20263;-57
2021/12/15 00:37:09;;;;;;;103.50;45.53;;;;;;;;;;2081297;28;20207;-57
2021/12/15 00:38:09;;;;;;;88.05;45.13;;;;;;;;;;2091817;28;20160;-59
2021/12/15 00:39:10;;;;;;;87.82;44.75;;;;;;;;;;2097642;28;20644;-60
2021/12/15 00:40:12;;;;;;;88.68;44.08;;;;;;;;;;2090501;28;20668;-59
2021/12/15 00:41:12;;;;;;;94.53;45.60;;;;;;;;;;2090121;28;20662;-59
2021/12/15 00:42:13;;;;;;;92.53;45.20;;;;;;;;;;2089565;28;20210;-60
2021/12/15 00:43:13;;;;;;;96.72;46.05;;;;;;;;;;2080947;28;20231;-58
2021/12/15 00:44:14;;;;;;;90.05;45.45;;;;;;;;;;2080204;28;20183;-59
2021/12/15 00:45:15;;;;;;;92.57;46.22;;;;;;;;;;2081343;28;20181;-57
2021/12/15 00:46:17;;;;;;;98.57;45.85;;;;;;;;;;2080742;28;20324;-57
2021/12/15 00:47:18;;;;;;;86.57;43.70;;;;;;;;;;2089367;28;20171;-56
2021/12/15 00:48:18;;;;;;;95.82;45.53;;;;;;;;;;2089189;28;20221;-56
2021/12/15 00:49:22;;;;;;;91.95;44.30;;;;;;;;;;2089246;28;20525;-55
2021/12/15 00:50:25;;;;;;;90.13;43.95;;;;;;;;;;2088230;28;20296;-56
2021/12/15 00:51:25;;;;;;;93.18;45.25;;;;;;;;;;2095569;28;20183;-58
2021/12/15 00:52:26;;;;;;;83.30;42.85;;;;;;;;;;2080374;28;20168;-55
2021/12/15 00:53:27;;;;;;;92.50;45.42;;;;;;;;;;2085203;28;20321;-56
2021/12/15 00:54:27;;;;;;;87.75;44.25;;;;;;;;;;2088520;28;20176;-54
2021/12/15 00:55:28;;;;;;;86.40;43.42;;;;;;;;;;2080158;28;20282;-56
2021/12/15 00:56:28;;;;;;;87.25;44.88;;;;;;;;;;2084922;23;20214;-55
2021/12/15 00:57:29;;;;;;;77.07;40.38;;;;;;;;;;2069988;28;20216;-60
2021/12/15 00:58:30;;;;;;;83.03;41.80;;;;;;;;;;2070993;28;20180;-58
2021/12/15 00:59:31;;;;;;;78.65;39.88;;;;;;;;;;2070954;28;20665;-54
2021/12/15 01:00:37;;;;;;;87.70;43.55;;;;;;;;;;2068356;28;20178;-60
2021/12/15 01:01:38;;;;;;;80.28;39.47;;;;;;;;;;2063712;28;20252;-59
2021/12/15 01:02:38;;;;;;;78.57;40.45;;;;;;;;;;2067947;28;20549;-59
2021/12/15 01:03:39;;;;;;;76.50;39.25;;;;;;;;;;2069937;28;20173;-55
2021/12/15 01:04:40;;;;;;;72.82;38.53;;;;;;;;;;2079572;28;20274;-59
2021/12/15 01:05:42;;;;;;;73.88;41.28;;;;;;;;;;2076518;28;20177;-59
2021/12/15 01:06:44;;;;;;;73.32;39.20;;;;;;;;;;2077109;28;20700;-59
2021/12/15 01:07:45;;;;;;;71.13;37.00;;;;;;;;;;2080164;28;20177;-58
2021/12/15 01:08:51;;;;;;;68.88;37.78;;;;;;;;;;2072353;28;20638;-60
2021/12/15 01:09:54;;;;;;;74.68;38.45;;;;;;;;;;2072748;28;20180;-58
2021/12/15 01:11:12;;;;;;;69.05;38.60;;;;;;;;;;2080595;28;20169;-59
2021/12/15 01:12:23;;;;;;;67.95;34.63;;;;;;;;;;2074394;28;20655;-60
2021/12/15 01:20:16;;;;;;;52.30;29.25;;;;;;;;;;2038156;28;20192;-61
2021/12/15 01:21:16;;;;;;;49.85;29.90;;;;;;;;;;2063730;28;20181;-59
2021/12/15 01:22:19;;;;;;;53.10;29.95;;;;;;;;;;2071866;28;20215;-57
2021/12/15 01:23:22;;;;;;;54.30;28.90;;;;;;;;;;2071348;28;20196;-61
2021/12/15 01:24:22;;;;;;;53.03;30.10;;;;;;;;;;2071714;28;20173;-58
2021/12/15 01:25:34;;;;;;;54.22;31.20;;;;;;;;;;2072315;28;20213;-58
2021/12/15 01:26:35;;;;;;;51.90;29.50;;;;;;;;;;2073455;28;20636;-58
2021/12/15 01:27:35;;;;;;;52.90;29.90;;;;;;;;;;2080893;28;20168;-62
2021/12/15 01:28:36;;;;;;;51.78;29.10;;;;;;;;;;2079917;28;20246;-60
2021/12/15 01:29:36;;;;;;;52.13;31.42;;;;;;;;;;2080499;28;20187;-58
2021/12/15 01:30:39;;;;;;;54.80;30.33;;;;;;;;;;2080339;28;20306;-58
2021/12/15 01:31:39;;;;;;;50.85;29.52;;;;;;;;;;2071011;28;20177;-58
2021/12/15 01:32:40;;;;;;;54.95;32.33;;;;;;;;;;2063438;28;20181;-61
2021/12/15 01:33:41;;;;;;;51.33;30.02;;;;;;;;;;2063976;28;20722;-63
2021/12/15 01:34:41;;;;;;;58.95;32.72;;;;;;;;;;2071883;28;20240;-59
2021/12/15 01:35:43;;;;;;;58.72;32.90;;;;;;;;;;2080371;28;20179;-57
2021/12/15 01:36:44;;;;;;;58.38;33.90;;;;;;;;;;2071755;28;20275;-58
2021/12/15 01:37:46;;;;;;;62.95;35.80;;;;;;;;;;2061772;28;20650;-58
2021/12/15 01:38:47;;;;;;;67.32;36.10;;;;;;;;;;2069411;28;20185;-57
2021/12/15 01:39:53;;;;;;;67.93;36.25;;;;;;;;;;2072223;28;20654;-54
2021/12/15 01:40:53;;;;;;;67.63;35.53;;;;;;;;;;2063849;28;20239;-59
2021/12/15 01:41:55;;;;;;;67.60;38.33;;;;;;;;;;2065479;28;20635;-59
2021/12/15 01:42:55;;;;;;;76.43;38.28;;;;;;;;;;2059730;28;20399;-58
2021/12/15 01:48:04;;;;;;;75.75;39.70;;;;;;;;;;2074018;28;20665;-57
2021/12/15 01:49:10;;;;;;;73.97;38.83;;;;;;;;;;2076581;28;20187;-59
2021/12/15 01:50:11;;;;;;;77.43;37.92;;;;;;;;;;2080098;28;20184;-59
2021/12/15 01:51:12;;;;;;;76.30;39.42;;;;;;;;;;2081190;28;20680;-58
2021/12/15 01:52:17;;;;;;;79.18;41.45;;;;;;;;;;2084097;28;20208;-61
2021/12/15 01:53:18;;;;;;;76.15;41.20;;;;;;;;;;2074146;28;20168;-59
2021/12/15 01:54:20;;;;;;;76.43;40.35;;;;;;;;;;2075346;28;20643;-54
2021/12/15 01:55:21;;;;;;;76.82;40.15;;;;;;;;;;2083599;28;20180;-55
2021/12/15 01:56:21;;;;;;;78.18;43.45;;;;;;;;;;2077510;28;20224;-61
2021/12/15 01:57:23;;;;;;;79.40;41.22;;;;;;;;;;2073108;28;20584;-60
2021/12/15 01:58:24;;;;;;;74.85;40.28;;;;;;;;;;2066278;28;20181;-54
2021/12/15 01:59:26;;;;;;;76.50;40.53;;;;;;;;;;2065489;28;20184;-57
2021/12/15 02:00:34;;;;;;;80.53;40.05;;;;;;;;;;2062235;28;20202;-56
2021/12/15 02:01:34;;;;;;;73.07;37.78;;;;;;;;;;2074553;28;20158;-58
2021/12/15 02:02:34;;;;;;;71.47;38.42;;;;;;;;;;2079341;28;20637;-57
2021/12/15 02:03:36;;;;;;;73.97;40.42;;;;;;;;;;2080652;28;20185;-57
2021/12/15 02:04:36;;;;;;;75.15;40.42;;;;;;;;;;2071194;28;20197;-53
2021/12/15 02:05:37;;;;;;;69.30;38.55;;;;;;;;;;2072277;28;20193;-56
2021/12/15 02:06:41;;;;;;;64.80;35.20;;;;;;;;;;2080098;28;20185;-56
2021/12/15 02:07:43;;;;;;;64.35;34.40;;;;;;;;;;2082565;28;20212;-57
2021/12/15 02:08:44;;;;;;;63.47;35.78;;;;;;;;;;2088662;28;20254;-57
2021/12/15 02:10:53;;;;;;;57.50;33.42;;;;;;;;;;2076531;28;20208;-56
2021/12/15 02:11:54;;;;;;;60.33;33.95;;;;;;;;;;2083657;28;20241;-53
2021/12/15 02:12:55;;;;;;;59.72;33.38;;;;;;;;;;2083721;28;20164;-54
2021/12/15 02:13:56;;;;;;;53.10;32.67;;;;;;;;;;2075424;28;20675;-57
2021/12/15 02:14:56;;;;;;;56.78;31.80;;;;;;;;;;2075723;28;20176;-58
2021/12/15 02:15:58;;;;;;;57.60;32.45;;;;;;;;;;2065445;28;20225;-60
2021/12/15 02:16:58;;;;;;;58.22;32.05;;;;;;;;;;2062945;28;20533;-56
2021/12/15 02:17:59;;;;;;;58.17;33.03;;;;;;;;;;2062878;28;20209;-58
2021/12/15 02:19:00;;;;;;;60.38;31.55;;;;;;;;;;2063285;28;20560;-57
2021/12/15 02:20:01;;;;;;;61.20;33.83;;;;;;;;;;2070929;28;20181;-58
2021/12/15 02:21:06;;;;;;;62.10;34.47;;;;;;;;;;2079097;28;20263;-59
2021/12/15 02:22:06;;;;;;;63.13;34.63;;;;;;;;;;2064389;28;20192;-59
2021/12/15 02:23:08;;;;;;;67.10;35.80;;;;;;;;;;2054693;28;20178;-60
2021/12/15 02:24:08;;;;;;;56.67;34.05;;;;;;;;;;2063859;28;20170;-58
2021/12/15 02:25:12;;;;;;;64.18;36.30;;;;;;;;;;2066749;28;20186;-59
2021/12/15 02:26:15;;;;;;;71.38;38.65;;;;;;;;;;2071922;28;20506;-57
2021/12/15 02:27:17;;;;;;;68.07;36.85;;;;;;;;;;2076658;28;20185;-57
2021/12/15 02:28:17;;;;;;;60.53;36.42;;;;;;;;;;2080400;28;20168;-58
2021/12/15 02:29:20;;;;;;;62.50;36.28;;;;;;;;;;2070830;28;20173;-58
2021/12/15 02:32:05;;;;;;;66.82;36.83;;;;;;;;;;2080658;28;20191;-60
2021/12/15 02:33:39;;;;;;;65.68;36.53;;;;;;;;;;2077834;28;20250;-60
2021/12/15 02:34:54;;;;;;;63.47;34.33;;;;;;;;;;2079907;28;20195;-59
2021/12/15 02:37:19;;;;;;;74.20;38.08;;;;;;;;;;2070392;28;20218;-57
2021/12/15 02:38:27;;;;;;;71.55;39.05;;;;;;;;;;2073806;28;20196;-60
2021/12/15 02:39:28;;;;;;;76.95;40.05;;;;;;;;;;2066361;28;20197;-58
2021/12/15 02:40:29;;;;;;;77.00;41.10;;;;;;;;;;2073104;28;20734;-59
2021/12/15 02:41:31;;;;;;;73.13;40.30;;;;;;;;;;2072426;28;20181;-58
2021/12/15 02:42:34;;;;;;;74.57;40.00;;;;;;;;;;2064499;28;20544;-57
2021/12/15 02:43:35;;;;;;;79.28;40.15;;;;;;;;;;2073478;28;20706;-61
2021/12/15 02:44:35;;;;;;;66.65;36.22;;;;;;;;;;2081640;28;20214;-55
2021/12/15 02:45:35;;;;;;;74.70;40.88;;;;;;;;;;2079969;28;20644;-58
2021/12/15 02:46:36;;;;;;;72.78;41.47;;;;;;;;;;2077418;28;20271;-60
2021/12/15 02:47:37;;;;;;;78.35;41.70;;;;;;;;;;2080401;28;20630;-58
2021/12/15 02:48:37;;;;;;;71.53;39.65;;;;;;;;;;2072678;28;20177;-57
2021/12/15 02:49:38;;;;;;;85.65;42.22;;;;;;;;;;2072856;28;20212;-59
2021/12/15 02:50:39;;;;;;;74.22;39.97;;;;;;;;;;2078663;28;20173;-59
2021/12/15 02:51:40;;;;;;;82.00;40.97;;;;;;;;;;2082622;28;20656;-60
2021/12/15 02:52:40;;;;;;;71.65;38.95;;;;;;;;;;2082729;28;20202;-62
2021/12/15 02:53:41;;;;;;;68.90;37.92;;;;;;;;;;2079087;28;20177;-60
2021/12/15 02:54:41;;;;;;;60.50;32.35;;;;;;;;;;2074099;28;20223;-58
2021/12/15 02:55:42;;;;;;;75.63;41.80;;;;;;;;;;2061927;28;20210;-60
2021/12/15 02:56:43;;;;;;;65.80;36.15;;;;;;;;;;2069444;28;20231;-60
2021/12/15 02:57:44;;;;;;;80.05;41.83;;;;;;;;;;2082438;28;20262;-60
2021/12/15 02:58:52;;;;;;;78.15;42.13;;;;;;;;;;2082788;28;20543;-60
2021/12/15 03:00:00;;;;;;;82.45;40.75;;;;;;;;;;2082656;28;20172;-60
2021/12/15 03:01:11;;;;;;;72.78;41.05;;;;;;;;;;2082048;28;20311;-57
2021/12/15 03:03:02;;;;;;;73.97;40.90;;;;;;;;;;2079239;28;20514;-60
2021/12/15 03:05:44;;;;;;;77.97;42.85;;;;;;;;;;2081661;28;20176;-60
2021/12/15 03:06:54;;;;;;;75.65;42.25;;;;;;;;;;2081392;28;20224;-59
2021/12/15 03:08:07;;;;;;;83.07;42.95;;;;;;;;;;2077970;28;20200;-57
2021/12/15 03:15:14;;;;;;;72.18;39.60;;;;;;;;;;2081853;28;20222;-56
2021/12/15 03:15:47;;;;;;;75.80;40.67;;;;;;;;;;2081794;28;20560;-59
2021/12/15 03:16:47;;;;;;;80.20;42.47;;;;;;;;;;2078892;28;20211;-56
2021/12/15 03:17:54;;;;;;;79.20;42.83;;;;;;;;;;2079118;28;20544;-62
2021/12/15 03:18:57;;;;;;;77.97;43.67;;;;;;;;;;2081505;28;20656;-58
2021/12/15 03:19:57;;;;;;;81.72;41.47;;;;;;;;;;2072937;28;20205;-57
2021/12/15 03:21:12;;;;;;;73.88;38.63;;;;;;;;;;2072393;28;20173;-59
2021/12/15 03:22:13;;;;;;;74.57;40.22;;;;;;;;;;2078294;28;20243;-56
2021/12/15 03:23:16;;;;;;;79.10;42.35;;;;;;;;;;2074685;28;20649;-57
2021/12/15 03:24:19;;;;;;;80.38;42.67;;;;;;;;;;2082483;28;20200;-58
2021/12/15 03:25:20;;;;;;;79.00;41.22;;;;;;;;;;2072936;28;20215;-59
2021/12/15 03:26:34;;;;;;;77.82;43.38;;;;;;;;;;2073067;28;20626;-58
2021/12/15 03:34:26;;;;;;;85.20;42.75;;;;;;;;;;2076409;28;20673;-60
2021/12/15 03:35:59;;;;;;;81.22;42.35;;;;;;;;;;2085794;28;20519;-59
2021/12/15 03:37:57;;;;;;;83.18;45.60;;;;;;;;;;2084788;28;20176;-59
2021/12/15 03:38:57;;;;;;;90.72;47.08;;;;;;;;;;2083979;28;20203;-61
2021/12/15 03:39:57;;;;;;;92.53;46.80;;;;;;;;;;2083597;28;20176;-59
2021/12/15 03:40:58;;;;;;;80.97;42.22;;;;;;;;;;2081559;28;20271;-57
2021/12/15 03:42:03;;;;;;;79.80;41.05;;;;;;;;;;2082222;28;20172;-59
2021/12/15 03:43:05;;;;;;;83.85;41.08;;;;;;;;;;2080207;28;20179;-60
2021/12/15 03:44:06;;;;;;;91.60;43.40;;;;;;;;;;2074748;28;20247;-58
2021/12/15 03:45:08;;;;;;;91.03;44.50;;;;;;;;;;2081511;28;20267;-57
2021/12/15 03:46:11;;;;;;;85.50;43.67;;;;;;;;;;2076096;28;20310;-58
2021/12/15 03:47:13;;;;;;;80.05;41.00;;;;;;;;;;2082455;28;20172;-57
2021/12/15 03:48:16;;;;;;;93.97;47.25;;;;;;;;;;2072501;28;20199;-58
2021/12/15 03:49:16;;;;;;;82.15;43.22;;;;;;;;;;2072904;28;20231;-58
2021/12/15 03:50:18;;;;;;;90.63;47.08;;;;;;;;;;2072077;28;20181;-61
2021/12/15 03:51:18;;;;;;;92.10;45.83;;;;;;;;;;2072391;28;20220;-59
2021/12/15 03:52:18;;;;;;;91.25;45.83;;;;;;;;;;2072348;28;20606;-58
2021/12/15 03:53:19;;;;;;;85.57;43.42;;;;;;;;;;2081074;28;20527;-56
2021/12/15 03:54:20;;;;;;;94.95;46.63;;;;;;;;;;2064034;28;20772;-58
2021/12/15 03:55:22;;;;;;;87.25;45.08;;;;;;;;;;2064519;28;20178;-60
2021/12/15 03:56:23;;;;;;;91.57;43.90;;;;;;;;;;2075440;28;20165;-59
2021/12/15 03:57:23;;;;;;;85.97;43.88;;;;;;;;;;2081324;28;20189;-60
2021/12/15 03:58:25;;;;;;;85.70;44.63;;;;;;;;;;2080791;28;20180;-59
2021/12/15 03:59:27;;;;;;;89.65;43.75;;;;;;;;;;2081815;28;20516;-60
2021/12/15 04:00:29;;;;;;;84.90;43.83;;;;;;;;;;2081836;28;20161;-58
2021/12/15 04:01:29;;;;;;;88.05;44.90;;;;;;;;;;2077995;28;20180;-58
2021/12/15 04:02:29;;;;;;;86.72;44.78;;;;;;;;;;2081334;28;20172;-58
2021/12/15 04:03:38;;;;;;;83.55;42.25;;;;;;;;;;2080788;28;20275;-57
2021/12/15 04:04:39;;;;;;;86.00;46.10;;;;;;;;;;2068773;28;20223;-58
2021/12/15 04:05:39;;;;;;;93.63;44.30;;;;;;;;;;2073235;28;20169;-58
2021/12/15 04:06:40;;;;;;;89.20;42.72;;;;;;;;;;2080362;28;20710;-58
2021/12/15 04:07:41;;;;;;;87.15;45.65;;;;;;;;;;2068279;28;20193;-55
2021/12/15 04:08:41;;;;;;;87.35;42.75;;;;;;;;;;2072817;28;20669;-58
2021/12/15 04:09:42;;;;;;;89.75;44.72;;;;;;;;;;2080937;28;20651;-55
2021/12/15 04:10:43;;;;;;;80.43;42.72;;;;;;;;;;2081270;28;20252;-58
2021/12/15 04:11:43;;;;;;;89.57;44.83;;;;;;;;;;2081095;28;20608;-62
2021/12/15 04:12:44;;;;;;;83.40;41.88;;;;;;;;;;2081172;28;20648;-60
2021/12/15 04:13:48;;;;;;;86.93;43.38;;;;;;;;;;2080941;28;20200;-59
2021/12/15 04:14:56;;;;;;;85.15;43.22;;;;;;;;;;2081249;28;20191;-60
2021/12/15 04:16:04;;;;;;;81.63;42.13;;;;;;;;;;2081315;28;20203;-60
2021/12/15 04:17:07;;;;;;;77.65;41.22;;;;;;;;;;2072533;28;20756;-54
2021/12/15 04:18:07;;;;;;;83.78;42.05;;;;;;;;;;2073290;28;20242;-59
2021/12/15 04:19:09;;;;;;;79.10;43.88;;;;;;;;;;2074623;28;20176;-58
2021/12/15 04:20:12;;;;;;;80.55;40.33;;;;;;;;;;2073370;28;20161;-57
2021/12/15 04:21:12;;;;;;;85.53;44.17;;;;;;;;;;2081079;28;20180;-59
2021/12/15 04:22:13;;;;;;;75.97;41.85;;;;;;;;;;2076369;28;20617;-59
2021/12/15 04:23:19;;;;;;;86.88;44.28;;;;;;;;;;2072029;28;20176;-59
2021/12/15 04:24:19;;;;;;;86.95;44.60;;;;;;;;;;2064904;28;20165;-60
2021/12/15 04:25:27;;;;;;;85.85;42.53;;;;;;;;;;2073194;28;20251;-59
2021/12/15 04:26:28;;;;;;;84.65;40.42;;;;;;;;;;2082562;28;20208;-60
2021/12/15 04:27:28;;;;;;;83.10;41.97;;;;;;;;;;2083474;28;20199;-59
2021/12/15 04:28:33;;;;;;;80.50;43.17;;;;;;;;;;2083383;28;20667;-61
2021/12/15 04:29:33;;;;;;;75.97;42.13;;;;;;;;;;2084597;28;20589;-57
2021/12/15 04:30:37;;;;;;;83.28;43.47;;;;;;;;;;2083486;28;20176;-60
2021/12/15 04:31:40;;;;;;;81.40;42.25;;;;;;;;;;2082359;28;20645;-59
2021/12/15 04:32:42;;;;;;;75.97;40.40;;;;;;;;;;2082608;28;20176;-56
2021/12/15 04:33:55;;;;;;;82.03;42.65;;;;;;;;;;2080937;28;20195;-59
2021/12/15 04:34:55;;;;;;;79.72;42.55;;;;;;;;;;2081363;28;20173;-60
2021/12/15 04:35:57;;;;;;;78.63;38.28;;;;;;;;;;2081860;28;20175;-61
2021/12/15 04:36:57;;;;;;;83.68;41.88;;;;;;;;;;2080175;28;20290;-59
2021/12/15 04:37:57;;;;;;;81.15;40.95;;;;;;;;;;2079477;28;20172;-60
2021/12/15 04:38:58;;;;;;;77.80;41.28;;;;;;;;;;2081319;28;20168;-59
2021/12/15 04:39:58;;;;;;;78.43;40.40;;;;;;;;;;2081161;28;20204;-53
2021/12/15 04:41:00;;;;;;;81.40;40.65;;;;;;;;;;2072477;28;20177;-59
2021/12/15 04:42:01;;;;;;;76.88;40.38;;;;;;;;;;2072990;28;20192;-58
2021/12/15 04:43:01;;;;;;;77.97;41.58;;;;;;;;;;2072518;28;20183;-60
2021/12/15 04:44:09;;;;;;;76.72;41.38;;;;;;;;;;2072811;28;20197;-58
2021/12/15 04:45:10;;;;;;;76.53;38.78;;;;;;;;;;2081023;28;20208;-59
2021/12/15 04:46:11;;;;;;;79.85;42.33;;;;;;;;;;2081099;28;20172;-59
2021/12/15 04:47:11;;;;;;;82.85;40.08;;;;;;;;;;2071900;28;20255;-59
2021/12/15 04:48:13;;;;;;;84.07;41.40;;;;;;;;;;2071927;28;20239;-60
2021/12/15 04:49:17;;;;;;;83.25;42.25;;;;;;;;;;2076787;28;20223;-59
2021/12/15 04:50:19;;;;;;;75.05;40.70;;;;;;;;;;2080815;28;20255;-60
2021/12/15 04:51:19;;;;;;;77.45;37.95;;;;;;;;;;2081112;28;20176;-59
2021/12/15 04:52:21;;;;;;;75.70;37.95;;;;;;;;;;2081547;28;20628;-59
2021/12/15 04:53:21;;;;;;;85.10;41.95;;;;;;;;;;2081037;28;20172;-59
2021/12/15 04:54:22;;;;;;;78.65;42.58;;;;;;;;;;2075985;28;20172;-58
2021/12/15 04:55:25;;;;;;;82.63;42.40;;;;;;;;;;2080464;28;20176;-60
2021/12/15 04:56:25;;;;;;;86.80;42.25;;;;;;;;;;2080489;28;20221;-57
2021/12/15 04:57:27;;;;;;;86.38;42.60;;;;;;;;;;2080433;28;20623;-60
2021/12/15 04:58:27;;;;;;;86.07;43.05;;;;;;;;;;2080750;28;20268;-50
2021/12/15 04:59:27;;;;;;;74.13;40.85;;;;;;;;;;2080579;28;20191;-58
2021/12/15 05:00:30;;;;;;;80.03;38.70;;;;;;;;;;2080593;28;20225;-58
2021/12/15 05:01:30;;;;;;;84.43;43.03;;;;;;;;;;2071908;28;20247;-59
2021/12/15 05:02:31;;;;;;;80.35;39.33;;;;;;;;;;2072618;28;20258;-60
2021/12/15 05:03:31;;;;;;;81.35;40.30;;;;;;;;;;2071619;28;20189;-58
2021/12/15 05:04:32;;;;;;;77.55;36.50;;;;;;;;;;2079228;28;20171;-58
2021/12/15 05:05:34;;;;;;;82.00;41.72;;;;;;;;;;2071672;28;20169;-57
2021/12/15 05:06:34;;;;;;;83.18;43.25;;;;;;;;;;2072096;28;20201;-57
2021/12/15 05:07:35;;;;;;;82.63;42.08;;;;;;;;;;2078270;28;20172;-60
2021/12/15 05:08:36;;;;;;;84.60;41.65;;;;;;;;;;2076087;28;20176;-59
2021/12/15 05:09:37;;;;;;;77.45;41.63;;;;;;;;;;2080218;28;20200;-58
2021/12/15 05:10:37;;;;;;;88.90;42.38;;;;;;;;;;2081505;28;20206;-59
2021/12/15 05:11:38;;;;;;;79.78;39.30;;;;;;;;;;2080623;28;20330;-59
2021/12/15 05:12:38;;;;;;;86.57;42.75;;;;;;;;;;2081259;28;20649;-58
2021/12/15 05:13:39;;;;;;;88.55;42.85;;;;;;;;;;2080231;28;20264;-60
2021/12/15 05:14:39;;;;;;;75.90;39.47;;;;;;;;;;2080879;28;20263;-60
2021/12/15 05:15:40;;;;;;;79.90;39.33;;;;;;;;;;2078443;28;20172;-60
2021/12/15 05:16:40;;;;;;;71.95;41.33;;;;;;;;;;2078786;28;20659;-52
2021/12/15 05:17:40;;;;;;;74.55;37.58;;;;;;;;;;2080242;28;20254;-60
2021/12/15 05:18:41;;;;;;;81.25;39.67;;;;;;;;;;2081179;28;20171;-56
2021/12/15 05:19:43;;;;;;;78.38;39.90;;;;;;;;;;2081412;28;20172;-56
2021/12/15 05:20:48;;;;;;;77.72;40.40;;;;;;;;;;2080236;28;20194;-58
2021/12/15 05:21:50;;;;;;;83.38;42.00;;;;;;;;;;2080154;28;20176;-58
2021/12/15 05:22:51;;;;;;;77.50;38.95;;;;;;;;;;2080809;28;20294;-57
2021/12/15 05:24:00;;;;;;;72.65;36.70;;;;;;;;;;2080466;28;20265;-60
2021/12/15 05:25:01;;;;;;;78.38;40.28;;;;;;;;;;2072257;28;20161;-58
2021/12/15 05:26:02;;;;;;;76.00;40.55;;;;;;;;;;2063445;28;20201;-58
2021/12/15 05:27:10;;;;;;;71.90;38.63;;;;;;;;;;2072015;28;20228;-57
2021/12/15 05:28:10;;;;;;;74.78;40.53;;;;;;;;;;2071438;28;20176;-60
2021/12/15 05:29:10;;;;;;;74.45;37.47;;;;;;;;;;2072411;28;20177;-59
2021/12/15 05:30:12;;;;;;;68.50;35.95;;;;;;;;;;2080649;28;20211;-60
2021/12/15 05:31:12;;;;;;;70.40;38.45;;;;;;;;;;2081327;28;20202;-59
2021/12/15 05:32:17;;;;;;;70.70;38.20;;;;;;;;;;2080895;28;20184;-58
2021/12/15 05:33:18;;;;;;;70.97;38.20;;;;;;;;;;2075753;28;20183;-58
2021/12/15 05:34:20;;;;;;;69.40;36.13;;;;;;;;;;2080576;28;20183;-61
2021/12/15 05:35:23;;;;;;;74.32;37.90;;;;;;;;;;2074360;28;20223;-58
2021/12/15 05:36:23;;;;;;;76.57;38.15;;;;;;;;;;2081158;28;20260;-59
2021/12/15 05:37:23;;;;;;;68.05;34.97;;;;;;;;;;2081104;28;20230;-58
2021/12/15 05:38:25;;;;;;;64.15;35.65;;;;;;;;;;2072394;28;20222;-57
2021/12/15 05:39:26;;;;;;;66.03;36.92;;;;;;;;;;2072259;28;20209;-59
2021/12/15 05:40:27;;;;;;;61.20;35.42;;;;;;;;;;2080549;28;20176;-58
2021/12/15 05:41:27;;;;;;;63.05;35.67;;;;;;;;;;2081124;28;20198;-57
2021/12/15 05:42:28;;;;;;;62.15;34.90;;;;;;;;;;2081101;28;20180;-59
2021/12/15 05:43:28;;;;;;;64.22;34.25;;;;;;;;;;2080729;28;20207;-57
2021/12/15 05:44:28;;;;;;;67.25;36.70;;;;;;;;;;2080950;28;20164;-58
2021/12/15 05:45:31;;;;;;;65.53;34.50;;;;;;;;;;2072065;28;20185;-57
2021/12/15 05:46:32;;;;;;;59.03;31.90;;;;;;;;;;2071631;28;20212;-59
2021/12/15 05:47:32;;;;;;;55.83;32.58;;;;;;;;;;2072034;28;20180;-59
2021/12/15 05:48:32;;;;;;;60.33;33.13;;;;;;;;;;2081326;28;20214;-61
2021/12/15 05:49:34;;;;;;;60.90;33.08;;;;;;;;;;2080750;28;20172;-59
2021/12/15 05:50:34;;;;;;;50.72;30.63;;;;;;;;;;2076910;28;20168;-60
2021/12/15 05:51:37;;;;;;;58.67;32.55;;;;;;;;;;2081294;28;20172;-58
2021/12/15 05:52:37;;;;;;;56.88;31.63;;;;;;;;;;2072082;28;20189;-60
2021/12/15 05:53:38;;;;;;;56.03;31.40;;;;;;;;;;2074554;28;20211;-61
2021/12/15 05:54:38;;;;;;;55.03;31.17;;;;;;;;;;2080701;28;20175;-59
2021/12/15 05:55:39;;;;;;;52.05;29.95;;;;;;;;;;2081012;28;20176;-59
2021/12/15 05:56:40;;;;;;;52.65;31.52;;;;;;;;;;2081107;28;20231;-56
2021/12/15 05:57:40;;;;;;;53.05;30.05;;;;;;;;;;2077276;28;20211;-58
2021/12/15 05:58:41;;;;;;;55.10;31.10;;;;;;;;;;2063277;28;20178;-60
2021/12/15 05:59:41;;;;;;;51.30;28.45;;;;;;;;;;2065091;28;20174;-58
2021/12/15 06:00:42;;;;;;;54.55;30.80;;;;;;;;;;2077132;28;20250;-56
2021/12/15 06:01:43;;;;;;;53.75;31.50;;;;;;;;;;2071225;28;20231;-55
2021/12/15 06:02:43;;;;;;;57.50;33.72;;;;;;;;;;2071058;28;20227;-54
2021/12/15 06:03:44;;;;;;;54.25;30.90;;;;;;;;;;2072289;28;20192;-51
2021/12/15 06:04:44;;;;;;;58.25;32.45;;;;;;;;;;2063758;28;20185;-58
2021/12/15 06:05:45;;;;;;;57.63;33.40;;;;;;;;;;2071924;28;20216;-58
2021/12/15 06:06:45;;;;;;;59.92;33.60;;;;;;;;;;2079209;28;20271;-59
2021/12/15 06:07:46;;;;;;;56.30;33.08;;;;;;;;;;2080383;28;20222;-57
2021/12/15 06:08:47;;;;;;;53.30;29.70;;;;;;;;;;2080739;28;20234;-57
2021/12/15 06:09:47;;;;;;;54.38;32.85;;;;;;;;;;2080443;28;20287;-59
2021/12/15 06:10:47;;;;;;;55.97;31.80;;;;;;;;;;2078565;28;20254;-60
2021/12/15 06:11:51;;;;;;;55.72;32.88;;;;;;;;;;2078561;28;20189;-62
2021/12/15 06:12:52;;;;;;;55.45;32.47;;;;;;;;;;2082383;28;20532;-59
2021/12/15 06:13:53;;;;;;;56.00;32.72;;;;;;;;;;2079152;28;20172;-62
2021/12/15 06:14:53;;;;;;;56.72;33.38;;;;;;;;;;2082451;28;20192;-59
2021/12/15 06:15:54;;;;;;;57.97;33.00;;;;;;;;;;2073369;28;20201;-60
2021/12/15 06:16:57;;;;;;;51.92;30.48;;;;;;;;;;2073352;28;20291;-58
2021/12/15 06:18:00;;;;;;;58.38;32.95;;;;;;;;;;2073892;28;20244;-60
2021/12/15 06:19:02;;;;;;;57.75;33.25;;;;;;;;;;2082639;28;20240;-58
2021/12/15 06:20:03;;;;;;;58.67;34.72;;;;;;;;;;2072763;28;20187;-58
2021/12/15 06:21:04;;;;;;;61.13;32.92;;;;;;;;;;2073119;28;20177;-60
2021/12/15 06:22:05;;;;;;;62.80;35.75;;;;;;;;;;2072898;28;20184;-62
2021/12/15 06:23:10;;;;;;;59.40;34.92;;;;;;;;;;2073131;28;20268;-59
2021/12/15 06:24:10;;;;;;;59.08;33.17;;;;;;;;;;2073734;28;20208;-59
2021/12/15 06:25:11;;;;;;;56.58;34.53;;;;;;;;;;2073935;28;20837;-61
2021/12/15 06:26:11;;;;;;;61.83;34.03;;;;;;;;;;2072838;28;20267;-61
2021/12/15 06:27:17;;;;;;;55.45;32.60;;;;;;;;;;2072977;28;20728;-61
2021/12/15 06:28:18;;;;;;;57.42;32.22;;;;;;;;;;2081662;28;20187;-62
2021/12/15 06:29:18;;;;;;;58.70;36.10;;;;;;;;;;2077965;28;20177;-49
2021/12/15 06:30:19;;;;;;;58.05;35.03;;;;;;;;;;2082378;28;20505;-48
2021/12/15 06:31:19;;;;;;;59.60;33.97;;;;;;;;;;2081804;28;20203;-47